Time;durP1;ratioP1;P1;durP2;ratioP2;P2;SDS_P1;SDS_P2;PMS_P1;PMS_P2;Temp;Humidity;BMP_temperature;BMP_pressure;BME280_temperature;BME280_humidity;BME280_pressure;Samples;Min_cycle;Max_cycle;Signal;HPM_P1;HPM_P2
2022/05/03 00:01:24;;;;;;;4.68;3.05;;;13.50;53.90;;;;;;5116985;28;20032;-66
2022/05/03 00:04:09;;;;;;;4.25;2.97;;;13.40;53.50;;;;;;5116353;28;20036;-66
2022/05/03 00:07:11;;;;;;;4.45;2.78;;;13.40;53.30;;;;;;5116833;28;20058;-66
2022/05/03 00:09:45;;;;;;;4.43;3.15;;;13.20;54.20;;;;;;5116870;28;20040;-66
2022/05/03 00:12:16;;;;;;;6.80;2.90;;;13.10;54.10;;;;;;5116805;28;20016;-66
2022/05/03 00:14:48;;;;;;;4.38;3.05;;;13.20;54.00;;;;;;5116706;28;20028;-66
2022/05/03 00:17:18;;;;;;;4.82;2.78;;;13.20;53.70;;;;;;5116679;28;20061;-66
2022/05/03 00:19:45;;;;;;;4.38;2.88;;;13.20;53.40;;;;;;5116691;28;20028;-66
2022/05/03 00:22:15;;;;;;;4.10;2.80;;;13.20;53.30;;;;;;5116591;28;20046;-66
2022/05/03 00:24:44;;;;;;;4.70;2.60;;;13.20;53.10;;;;;;5116541;28;20032;-66
2022/05/03 00:27:10;;;;;;;4.93;2.58;;;13.20;53.00;;;;;;5116354;28;20105;-66
2022/05/03 00:29:36;;;;;;;4.25;2.50;;;13.20;53.20;;;;;;5116308;28;20024;-66
2022/05/03 00:32:03;;;;;;;3.50;2.65;;;13.10;53.00;;;;;;5116052;28;20050;-67
2022/05/03 00:34:33;;;;;;;5.82;2.50;;;13.10;52.80;;;;;;5115608;28;20039;-67
2022/05/03 00:36:59;;;;;;;4.03;2.80;;;13.00;53.40;;;;;;5116302;28;20111;-67
2022/05/03 00:39:26;;;;;;;4.00;2.65;;;12.90;53.30;;;;;;5116310;28;20024;-67
2022/05/03 00:42:03;;;;;;;4.30;2.47;;;12.80;53.20;;;;;;5116286;28;20101;-67
2022/05/03 00:44:59;;;;;;;3.67;2.60;;;12.80;53.80;;;;;;5116183;28;20032;-67
2022/05/03 00:47:48;;;;;;;3.45;2.40;;;12.80;53.30;;;;;;5098079;28;20028;-67
2022/05/03 00:50:29;;;;;;;4.03;2.50;;;12.60;53.40;;;;;;5115473;28;20029;-67
2022/05/03 00:52:58;;;;;;;4.07;2.50;;;12.50;53.60;;;;;;5116091;28;20062;-67
2022/05/03 00:55:39;;;;;;;2.90;2.25;;;12.50;53.90;;;;;;5115883;28;20024;-67
2022/05/03 00:58:18;;;;;;;4.05;2.42;;;12.50;53.80;;;;;;5115888;28;20024;-67
2022/05/03 01:01:00;;;;;;;3.55;2.40;;;12.60;53.40;;;;;;5115968;28;20058;-67
2022/05/03 01:03:39;;;;;;;3.78;2.33;;;12.50;53.10;;;;;;5097582;28;20028;-67
2022/05/03 01:06:22;;;;;;;3.88;2.30;;;12.50;53.00;;;;;;5115878;28;20024;-67
2022/05/03 01:09:07;;;;;;;4.65;2.33;;;12.50;52.90;;;;;;5115701;28;20075;-67
2022/05/03 01:12:01;;;;;;;4.15;2.80;;;12.40;53.20;;;;;;5097646;28;20027;-67
2022/05/03 01:14:49;;;;;;;3.55;2.50;;;12.30;53.20;;;;;;5115558;28;20024;-67
2022/05/03 01:17:24;;;;;;;5.53;2.47;;;12.20;53.30;;;;;;5115541;28;20032;-67
2022/05/03 01:19:49;;;;;;;4.03;2.70;;;12.00;53.90;;;;;;5115497;28;20047;-67
2022/05/03 01:22:35;;;;;;;5.20;2.20;;;12.00;53.60;;;;;;5115371;28;20071;-67
2022/05/03 01:25:22;;;;;;;4.80;2.58;;;12.10;53.30;;;;;;5115392;28;20028;-67
2022/05/03 01:27:59;;;;;;;3.78;2.40;;;12.10;52.90;;;;;;5097158;28;20088;-67
2022/05/03 01:30:30;;;;;;;3.20;2.10;;;12.00;53.20;;;;;;5097300;28;20020;-67
2022/05/03 01:33:06;;;;;;;3.75;2.40;;;11.80;53.30;;;;;;5115146;28;20059;-67
2022/05/03 01:35:37;;;;;;;3.72;2.40;;;11.50;53.80;;;;;;5115163;28;20020;-67
2022/05/03 01:38:12;;;;;;;5.60;2.50;;;11.40;54.40;;;;;;5115163;28;20020;-67
2022/05/03 01:40:56;;;;;;;4.25;2.15;;;11.20;55.00;;;;;;5115088;28;20024;-67
2022/05/03 01:43:24;;;;;;;3.28;2.20;;;11.10;55.60;;;;;;5114994;28;20030;-67
2022/05/03 01:46:02;;;;;;;4.55;2.15;;;11.20;55.70;;;;;;5114915;28;20028;-67
2022/05/03 01:51:44;;;;;;;3.25;2.05;;;11.40;54.90;;;;;;5114922;28;20062;-67
2022/05/03 01:54:44;;;;;;;3.58;2.08;;;11.40;54.90;;;;;;5114829;28;20031;-67
2022/05/03 01:57:31;;;;;;;3.72;2.20;;;11.30;55.00;;;;;;5114716;28;20364;-67
2022/05/03 02:00:08;;;;;;;4.82;2.40;;;11.00;55.50;;;;;;5114830;28;20051;-67
2022/05/03 02:02:54;;;;;;;8.98;2.55;;;10.80;56.20;;;;;;5096619;28;20058;-67
2022/05/03 02:05:40;;;;;;;3.75;2.20;;;10.90;56.20;;;;;;5114523;28;20077;-66
2022/05/03 02:08:10;;;;;;;2.95;2.17;;;11.00;56.20;;;;;;5114600;28;20053;-66
2022/05/03 02:11:04;;;;;;;4.88;2.58;;;11.10;55.90;;;;;;5114532;28;20027;-67
2022/05/03 02:16:48;;;;;;;5.60;2.67;;;10.70;56.60;;;;;;5114630;28;20034;-67
2022/05/03 02:19:35;;;;;;;3.40;2.30;;;10.70;57.10;;;;;;5114315;28;20030;-67
2022/05/03 02:22:21;;;;;;;3.90;2.35;;;10.70;57.30;;;;;;5114277;28;20028;-67
2022/05/03 02:24:52;;;;;;;6.10;2.45;;;10.70;57.30;;;;;;5114380;28;20020;-66
2022/05/03 02:27:21;;;;;;;3.25;2.33;;;10.60;57.40;;;;;;5114075;28;20039;-67
2022/05/03 02:29:49;;;;;;;4.00;2.58;;;10.70;57.50;;;;;;5114032;28;20043;-67
2022/05/03 02:32:35;;;;;;;5.05;2.88;;;10.70;57.70;;;;;;5113891;28;20095;-67
2022/05/03 02:35:04;;;;;;;4.35;2.03;;;10.60;57.70;;;;;;5114021;28;20050;-67
2022/05/03 02:37:53;;;;;;;4.22;2.20;;;10.30;58.10;;;;;;5114008;28;20465;-67
2022/05/03 02:40:22;;;;;;;3.17;2.13;;;10.20;58.90;;;;;;5113971;28;20016;-67
2022/05/03 02:42:51;;;;;;;3.28;1.98;;;10.10;59.10;;;;;;5113920;28;20079;-67
2022/05/03 02:45:18;;;;;;;3.20;2.10;;;10.30;59.40;;;;;;5113892;28;20020;-67
2022/05/03 02:48:03;;;;;;;4.25;2.42;;;10.20;59.20;;;;;;5113851;28;20035;-66
2022/05/03 02:50:36;;;;;;;4.38;2.35;;;10.20;59.40;;;;;;5113732;28;20017;-66
2022/05/03 02:53:06;;;;;;;4.10;2.30;;;10.10;59.40;;;;;;5113871;28;20076;-67
2022/05/03 02:55:50;;;;;;;4.25;2.65;;;10.30;59.30;;;;;;5113754;28;20047;-67
2022/05/03 02:58:50;;;;;;;3.85;2.60;;;10.30;59.00;;;;;;5113722;28;20055;-67
2022/05/03 03:01:50;;;;;;;3.92;2.20;;;10.50;58.60;;;;;;5113734;28;20080;-67
2022/05/03 03:04:40;;;;;;;4.30;2.38;;;10.50;57.80;;;;;;5066225;28;20078;-67
2022/05/03 03:07:06;;;;;;;4.45;2.50;;;10.10;58.00;;;;;;5113582;28;20028;-66
2022/05/03 03:09:41;;;;;;;3.10;2.20;;;9.90;58.90;;;;;;5113627;28;20054;-67
2022/05/03 03:12:29;;;;;;;3.88;2.10;;;10.10;59.00;;;;;;5113496;28;20020;-67
2022/05/03 03:15:07;;;;;;;3.63;2.60;;;10.10;58.70;;;;;;5113607;28;20031;-67
2022/05/03 03:17:37;;;;;;;4.22;2.35;;;10.00;59.20;;;;;;5113455;28;20031;-67
2022/05/03 03:20:14;;;;;;;3.72;2.42;;;9.70;60.40;;;;;;5113440;28;20024;-67
2022/05/03 03:22:42;;;;;;;4.65;2.90;;;9.50;60.00;;;;;;5113540;28;20024;-67
2022/05/03 03:25:14;;;;;;;4.60;2.33;;;9.40;60.70;;;;;;5114041;28;20024;-67
2022/05/03 03:27:42;;;;;;;5.05;2.60;;;9.30;61.20;;;;;;5117677;28;20048;-67
2022/05/03 03:30:10;;;;;;;4.13;2.60;;;9.50;61.50;;;;;;5117624;28;20021;-67
2022/05/03 03:32:39;;;;;;;4.22;2.40;;;9.60;61.20;;;;;;5099390;28;20047;-67
2022/05/03 03:35:05;;;;;;;4.25;2.50;;;9.60;60.80;;;;;;5117437;28;20027;-66
2022/05/03 03:37:36;;;;;;;5.88;3.00;;;9.70;60.50;;;;;;5117439;28;20024;-67
2022/05/03 03:40:04;;;;;;;6.28;2.83;;;9.90;60.50;;;;;;5117414;28;20054;-67
2022/05/03 03:42:30;;;;;;;3.72;2.20;;;9.90;60.20;;;;;;5117254;28;20035;-67
2022/05/03 03:45:08;;;;;;;5.78;2.47;;;9.90;60.00;;;;;;5117262;28;20047;-67
2022/05/03 03:47:38;;;;;;;4.55;2.80;;;9.90;59.90;;;;;;5099159;28;20020;-67
2022/05/03 03:50:05;;;;;;;5.07;2.67;;;9.70;60.90;;;;;;5117224;28;20035;-67
2022/05/03 03:52:33;;;;;;;6.82;3.03;;;9.70;61.30;;;;;;5117304;28;20044;-67
2022/05/03 03:54:59;;;;;;;5.38;2.88;;;9.70;61.60;;;;;;5117126;28;20020;-67
2022/05/03 03:57:25;;;;;;;5.90;2.50;;;9.70;61.60;;;;;;5117066;28;20028;-67
2022/05/03 03:59:52;;;;;;;4.45;2.83;;;9.70;61.90;;;;;;5117144;28;20028;-67
2022/05/03 04:02:17;;;;;;;4.28;3.00;;;9.60;62.10;;;;;;5116987;28;20028;-67
2022/05/03 04:04:44;;;;;;;4.97;2.90;;;9.70;61.70;;;;;;5098973;28;20119;-67
2022/05/03 04:07:11;;;;;;;4.40;2.72;;;9.70;61.30;;;;;;5116813;28;20059;-67
2022/05/03 04:09:37;;;;;;;4.65;2.60;;;9.70;61.30;;;;;;5116824;28;20024;-67
2022/05/03 04:12:04;;;;;;;5.03;3.10;;;9.70;61.20;;;;;;5116788;28;20079;-67
2022/05/03 04:14:30;;;;;;;5.43;2.97;;;9.70;60.80;;;;;;5116784;28;20040;-67
2022/05/03 04:16:57;;;;;;;4.13;2.47;;;9.50;61.00;;;;;;5116687;28;20046;-67
2022/05/03 04:19:23;;;;;;;4.35;2.45;;;9.40;61.60;;;;;;5116632;28;20083;-67
2022/05/03 04:21:50;;;;;;;5.35;2.55;;;9.50;61.60;;;;;;5116580;28;20086;-67
2022/05/03 04:24:16;;;;;;;3.92;2.55;;;9.30;61.10;;;;;;5116580;28;20054;-66
2022/05/03 04:26:42;;;;;;;4.65;2.70;;;9.20;61.60;;;;;;5116571;28;20066;-67
2022/05/03 04:29:08;;;;;;;3.88;2.65;;;9.30;61.90;;;;;;5116404;28;20071;-67
2022/05/03 04:31:35;;;;;;;7.63;2.70;;;9.30;62.00;;;;;;5116397;28;20020;-67
2022/05/03 04:34:03;;;;;;;5.65;3.33;;;9.30;62.20;;;;;;5116211;28;20066;-67
2022/05/03 04:36:33;;;;;;;4.75;2.65;;;9.40;62.00;;;;;;5115813;28;20079;-67
2022/05/03 04:39:02;;;;;;;4.45;3.10;;;9.50;61.60;;;;;;5098044;28;20028;-67
2022/05/03 04:41:28;;;;;;;6.38;3.28;;;9.30;61.90;;;;;;5116141;28;20043;-67
2022/05/03 04:43:54;;;;;;;4.88;3.00;;;9.30;62.00;;;;;;5116114;28;20031;-67
2022/05/03 04:46:21;;;;;;;5.65;3.20;;;9.40;62.00;;;;;;5116153;28;20024;-67
2022/05/03 04:48:46;;;;;;;6.47;3.65;;;9.40;62.00;;;;;;5116115;28;20076;-69
2022/05/03 04:51:23;;;;;;;5.05;3.08;;;9.40;62.00;;;;;;5116046;28;20039;-67
2022/05/03 04:53:50;;;;;;;5.68;3.33;;;9.40;62.00;;;;;;5115993;28;20048;-67
2022/05/03 04:56:19;;;;;;;8.63;3.50;;;9.30;62.40;;;;;;5115895;28;20024;-67
2022/05/03 04:58:46;;;;;;;5.75;3.72;;;9.30;63.20;;;;;;5115963;28;20020;-67
2022/05/03 05:01:12;;;;;;;6.65;3.72;;;9.40;63.10;;;;;;5115847;28;20043;-67
2022/05/03 05:03:39;;;;;;;6.00;4.30;;;9.60;63.20;;;;;;5115798;28;20028;-67
2022/05/03 05:06:04;;;;;;;10.00;4.25;;;9.70;63.00;;;;;;5115742;28;20032;-67
2022/05/03 05:08:30;;;;;;;7.35;3.83;;;9.90;62.90;;;;;;5115728;28;20096;-67
2022/05/03 05:10:55;;;;;;;8.80;3.75;;;9.90;62.90;;;;;;5115631;28;20031;-67
2022/05/03 05:13:21;;;;;;;8.50;4.38;;;9.90;63.00;;;;;;5097914;28;20046;-67
2022/05/03 05:15:47;;;;;;;8.30;4.22;;;10.00;63.20;;;;;;5115547;28;20023;-67
2022/05/03 05:18:14;;;;;;;10.48;5.10;;;10.00;63.60;;;;;;5115527;28;20032;-67
2022/05/03 05:20:40;;;;;;;8.00;4.53;;;10.10;63.70;;;;;;5115458;28;20035;-67
2022/05/03 05:23:06;;;;;;;6.60;4.28;;;10.20;64.00;;;;;;5115447;28;20028;-67
2022/05/03 05:25:31;;;;;;;9.63;4.72;;;10.20;64.10;;;;;;5097313;28;20020;-67
2022/05/03 05:27:57;;;;;;;9.27;4.90;;;10.30;63.80;;;;;;5115170;28;20038;-67
2022/05/03 05:30:23;;;;;;;11.27;5.38;;;10.40;64.00;;;;;;5115244;28;20047;-67
2022/05/03 05:32:48;;;;;;;10.70;5.30;;;10.40;63.90;;;;;;5115052;28;20071;-67
2022/05/03 05:35:14;;;;;;;8.25;5.03;;;10.50;63.90;;;;;;5115151;28;20074;-67
2022/05/03 05:37:40;;;;;;;8.13;4.72;;;10.50;63.90;;;;;;5115116;28;20050;-67
2022/05/03 05:40:06;;;;;;;8.48;5.07;;;10.60;64.00;;;;;;5115055;28;20024;-67
2022/05/03 05:42:32;;;;;;;7.97;5.18;;;10.70;64.00;;;;;;5115033;28;20028;-68
2022/05/03 05:44:58;;;;;;;10.27;5.07;;;10.70;63.90;;;;;;5114998;28;20027;-67
2022/05/03 05:47:24;;;;;;;7.60;4.97;;;10.70;63.90;;;;;;5114819;28;20135;-68
2022/05/03 05:49:49;;;;;;;7.40;5.05;;;10.80;64.00;;;;;;5114866;28;20038;-67
2022/05/03 05:55:00;;;;;;;9.90;5.40;;;10.80;63.80;;;;;;5114900;28;20031;-67
2022/05/03 05:57:25;;;;;;;9.10;4.63;;;10.90;64.00;;;;;;5114748;28;20083;-67
2022/05/03 05:59:51;;;;;;;12.85;5.55;;;10.90;64.10;;;;;;5114690;28;20050;-67
2022/05/03 06:02:16;;;;;;;10.80;5.50;;;11.00;64.00;;;;;;5114645;28;20058;-67
2022/05/03 06:04:42;;;;;;;10.73;5.93;;;11.00;64.00;;;;;;5114585;28;20076;-67
2022/05/03 06:07:08;;;;;;;12.15;5.78;;;11.00;63.90;;;;;;5114584;28;20045;-66
2022/05/03 06:09:34;;;;;;;12.07;6.07;;;11.00;64.00;;;;;;5114492;28;20502;-67
2022/05/03 06:11:59;;;;;;;9.10;5.15;;;11.10;63.60;;;;;;5114447;28;20012;-67
2022/05/03 06:14:25;;;;;;;8.48;5.47;;;11.10;63.50;;;;;;5114421;28;20028;-67
2022/05/03 06:16:54;;;;;;;10.90;6.28;;;11.20;63.40;;;;;;5114330;28;20032;-67
2022/05/03 06:19:20;;;;;;;10.20;6.45;;;11.20;63.40;;;;;;5114318;28;20513;-67
2022/05/03 06:21:45;;;;;;;9.52;6.30;;;11.20;63.40;;;;;;5114305;28;20024;-67
2022/05/03 06:24:11;;;;;;;11.13;7.13;;;11.30;63.30;;;;;;5114257;28;20024;-67
2022/05/03 06:26:37;;;;;;;10.55;5.95;;;11.30;63.30;;;;;;5114080;28;20495;-67
2022/05/03 06:29:08;;;;;;;8.93;5.82;;;11.30;63.60;;;;;;5114100;28;20016;-67
2022/05/03 06:31:35;;;;;;;16.65;6.07;;;11.40;64.40;;;;;;5114130;28;20027;-67
2022/05/03 06:34:01;;;;;;;9.00;5.35;;;11.50;63.60;;;;;;5113920;28;20108;-67
2022/05/03 06:36:27;;;;;;;10.43;6.28;;;11.50;63.60;;;;;;5114004;28;20024;-67
2022/05/03 06:38:53;;;;;;;9.18;5.60;;;11.60;63.50;;;;;;5113986;28;20024;-67
2022/05/03 06:41:18;;;;;;;11.90;5.93;;;11.60;63.50;;;;;;5114025;28;20028;-67
2022/05/03 06:43:44;;;;;;;8.25;5.40;;;11.70;63.40;;;;;;5113850;28;20032;-67
2022/05/03 06:46:11;;;;;;;9.82;6.10;;;11.70;63.20;;;;;;5113843;28;20036;-67
2022/05/03 06:48:36;;;;;;;11.30;5.55;;;11.80;63.00;;;;;;5113719;28;20058;-67
2022/05/03 06:51:03;;;;;;;7.68;5.03;;;11.80;62.80;;;;;;5113760;28;20024;-67
2022/05/03 06:53:29;;;;;;;10.65;5.20;;;11.90;62.80;;;;;;5113752;28;20044;-67
2022/05/03 06:55:54;;;;;;;11.38;5.10;;;11.90;62.70;;;;;;5113822;28;20028;-67
2022/05/03 06:58:20;;;;;;;10.25;5.30;;;12.00;62.50;;;;;;5095763;28;20083;-67
2022/05/03 07:00:46;;;;;;;8.65;4.63;;;12.00;62.30;;;;;;5113175;28;20083;-67
2022/05/03 07:03:12;;;;;;;7.65;4.82;;;12.10;62.10;;;;;;5095815;28;20035;-67
2022/05/03 07:05:38;;;;;;;9.95;5.20;;;12.20;62.10;;;;;;5113517;28;20017;-67
2022/05/03 07:08:04;;;;;;;8.20;4.80;;;12.20;62.10;;;;;;5113468;28;20031;-67
2022/05/03 07:10:30;;;;;;;6.85;4.10;;;12.30;61.60;;;;;;5113483;28;20020;-67
2022/05/03 07:12:56;;;;;;;7.75;4.00;;;12.30;61.20;;;;;;5113435;28;20028;-67
2022/05/03 07:15:23;;;;;;;5.47;3.33;;;12.40;60.60;;;;;;5113466;28;20091;-67
2022/05/03 07:23:17;;;;;;;6.07;3.35;;;12.60;57.80;;;;;;5113504;28;20050;-67
2022/05/03 07:25:46;;;;;;;7.47;3.25;;;12.60;57.40;;;;;;5113342;28;20036;-67
2022/05/03 07:28:11;;;;;;;5.18;2.80;;;12.70;57.00;;;;;;5113190;28;20033;-67
2022/05/03 07:30:37;;;;;;;4.38;2.83;;;12.80;56.50;;;;;;5113270;28;20038;-67
2022/05/03 07:33:03;;;;;;;4.90;2.85;;;12.90;55.70;;;;;;5113142;28;20069;-67
2022/05/03 07:35:30;;;;;;;8.18;3.03;;;13.00;54.80;;;;;;5113277;28;20021;-67
2022/05/03 07:37:56;;;;;;;6.07;2.50;;;13.10;54.20;;;;;;5113250;28;20060;-67
2022/05/03 07:40:22;;;;;;;5.53;2.63;;;13.20;54.00;;;;;;5113240;28;20031;-67
2022/05/03 07:42:48;;;;;;;5.50;2.72;;;13.30;53.60;;;;;;5113228;28;20043;-67
2022/05/03 07:45:13;;;;;;;4.45;2.90;;;13.30;52.40;;;;;;5113169;28;20039;-67
2022/05/03 07:47:39;;;;;;;5.78;2.67;;;13.40;52.10;;;;;;5095304;28;20036;-67
2022/05/03 07:50:06;;;;;;;5.68;3.05;;;13.50;51.90;;;;;;5113123;28;20032;-67
2022/05/03 07:52:32;;;;;;;4.57;2.78;;;13.60;52.10;;;;;;5113016;28;20016;-67
2022/05/03 07:54:57;;;;;;;5.35;2.88;;;13.70;51.40;;;;;;5113108;28;20021;-67
2022/05/03 07:57:24;;;;;;;6.55;3.13;;;13.80;51.50;;;;;;5113058;28;20051;-67
2022/05/03 07:59:50;;;;;;;11.90;3.28;;;13.90;51.20;;;;;;5113000;28;20049;-67
2022/05/03 08:02:16;;;;;;;5.85;2.70;;;14.00;50.70;;;;;;5113040;28;20048;-67
2022/05/03 08:04:41;;;;;;;4.38;2.60;;;14.10;50.90;;;;;;5113012;28;20034;-67
2022/05/03 08:07:07;;;;;;;4.90;2.67;;;14.20;50.40;;;;;;5112917;28;20042;-67
2022/05/03 08:09:34;;;;;;;4.47;2.60;;;14.30;50.40;;;;;;5113041;28;20036;-67
2022/05/03 08:12:00;;;;;;;4.63;2.30;;;14.40;49.00;;;;;;5113419;28;20016;-67
2022/05/03 08:14:28;;;;;;;3.85;2.03;;;14.40;48.60;;;;;;5116736;28;20016;-67
2022/05/03 08:16:55;;;;;;;4.65;2.47;;;14.50;48.70;;;;;;5116734;28;20030;-67
2022/05/03 08:19:21;;;;;;;6.10;2.40;;;14.60;48.20;;;;;;5116692;28;20028;-67
2022/05/03 08:21:47;;;;;;;3.42;2.20;;;14.70;47.50;;;;;;5116765;28;20031;-67
2022/05/03 08:24:13;;;;;;;4.60;2.10;;;14.80;47.60;;;;;;5116538;28;20479;-67
2022/05/03 08:26:38;;;;;;;5.55;2.40;;;14.80;47.30;;;;;;5116573;28;20160;-67
2022/05/03 08:29:04;;;;;;;4.68;2.45;;;14.90;46.10;;;;;;5116454;28;20025;-67
2022/05/03 08:31:29;;;;;;;4.60;2.45;;;14.90;46.60;;;;;;5116456;28;20032;-67
2022/05/03 08:33:55;;;;;;;5.10;2.28;;;15.00;46.20;;;;;;5116209;28;20055;-67
2022/05/03 08:36:21;;;;;;;3.50;2.40;;;15.00;45.70;;;;;;5116340;28;20024;-67
2022/05/03 08:44:09;;;;;;;4.50;2.45;;;15.20;45.80;;;;;;5116228;28;20024;-67
2022/05/03 08:46:36;;;;;;;4.68;2.88;;;15.30;45.40;;;;;;5116092;28;20479;-67
2022/05/03 08:49:04;;;;;;;5.97;2.63;;;15.40;45.50;;;;;;5116123;28;20058;-67
2022/05/03 08:51:32;;;;;;;4.00;2.60;;;15.40;45.50;;;;;;5116037;28;20054;-67
2022/05/03 08:54:01;;;;;;;4.75;2.83;;;15.50;45.70;;;;;;5116035;28;20024;-67
2022/05/03 08:56:28;;;;;;;4.25;2.60;;;15.60;45.30;;;;;;5115976;28;20021;-67
2022/05/03 08:58:54;;;;;;;6.00;3.15;;;15.70;45.50;;;;;;5115891;28;20066;-67
2022/05/03 09:01:21;;;;;;;6.25;3.13;;;15.80;45.30;;;;;;5115886;28;20024;-67
2022/05/03 09:03:46;;;;;;;7.13;4.07;;;15.80;45.30;;;;;;5115811;28;20020;-67
2022/05/03 09:06:12;;;;;;;5.47;3.33;;;15.90;46.50;;;;;;5115793;28;20084;-67
2022/05/03 09:08:39;;;;;;;7.05;4.18;;;16.00;45.80;;;;;;5115683;28;20046;-67
2022/05/03 09:11:15;;;;;;;6.53;3.55;;;16.10;45.80;;;;;;5115636;28;20020;-67
2022/05/03 09:13:42;;;;;;;6.57;3.80;;;16.20;46.40;;;;;;5115614;28;20024;-67
2022/05/03 09:16:26;;;;;;;7.55;4.50;;;16.30;46.40;;;;;;5115599;28;20031;-67
2022/05/03 09:18:51;;;;;;;6.95;4.28;;;16.40;46.60;;;;;;5115551;28;20024;-67
2022/05/03 09:24:19;;;;;;;7.78;4.43;;;16.50;46.50;;;;;;5115321;28;20039;-67
2022/05/03 09:26:45;;;;;;;8.85;4.72;;;16.50;47.50;;;;;;5115269;28;20032;-67
2022/05/03 09:29:12;;;;;;;8.18;4.65;;;16.60;47.80;;;;;;5115268;28;20031;-67
2022/05/03 09:31:47;;;;;;;7.90;4.85;;;16.60;47.50;;;;;;5115278;28;20054;-67
2022/05/03 09:34:28;;;;;;;7.70;4.72;;;16.70;47.60;;;;;;5115099;28;20047;-67
2022/05/03 09:36:55;;;;;;;6.70;4.00;;;16.80;48.20;;;;;;5115347;28;20020;-67
2022/05/03 09:39:29;;;;;;;7.07;4.18;;;16.80;48.00;;;;;;5115062;28;20020;-67
2022/05/03 09:42:09;;;;;;;8.48;4.25;;;16.90;47.70;;;;;;5115178;28;20012;-67
2022/05/03 09:44:36;;;;;;;5.45;3.75;;;17.00;47.70;;;;;;5115101;28;20040;-67
2022/05/03 09:47:09;;;;;;;7.57;4.15;;;17.00;47.30;;;;;;5114913;28;20032;-67
2022/05/03 09:49:39;;;;;;;7.50;4.45;;;17.10;47.70;;;;;;5115121;28;20024;-67
2022/05/03 09:52:09;;;;;;;8.68;4.35;;;17.20;47.30;;;;;;5114866;28;20020;-67
2022/05/03 09:54:50;;;;;;;6.68;4.10;;;17.20;46.80;;;;;;5114843;28;20043;-67
2022/05/03 09:57:24;;;;;;;7.43;4.25;;;17.30;47.20;;;;;;5114738;28;20025;-67
2022/05/03 09:59:52;;;;;;;6.45;3.83;;;17.40;47.00;;;;;;5114750;28;20020;-66
2022/05/03 10:02:23;;;;;;;6.65;3.90;;;17.50;46.90;;;;;;5114695;28;20031;-66
2022/05/03 10:04:51;;;;;;;7.00;4.18;;;17.50;46.70;;;;;;5114680;28;20035;-67
2022/05/03 10:07:17;;;;;;;10.20;4.38;;;17.60;47.30;;;;;;5114502;28;20034;-67
2022/05/03 10:09:44;;;;;;;5.93;3.65;;;17.70;47.90;;;;;;5114515;28;20052;-66
2022/05/03 10:12:12;;;;;;;8.88;4.50;;;17.90;47.00;;;;;;5114510;28;20042;-67
2022/05/03 10:14:38;;;;;;;9.90;4.85;;;17.90;46.10;;;;;;5114440;28;20024;-67
2022/05/03 10:20:38;;;;;;;6.70;3.90;;;18.00;45.10;;;;;;5114546;28;20039;-67
2022/05/03 10:23:04;;;;;;;5.85;3.42;;;18.00;45.50;;;;;;5114368;28;20028;-64
2022/05/03 10:26:00;;;;;;;6.78;3.45;;;18.10;45.30;;;;;;5114263;28;20031;-67
2022/05/03 10:29:05;;;;;;;5.75;3.13;;;18.20;45.10;;;;;;5103847;28;20087;-64
2022/05/03 10:31:50;;;;;;;6.32;3.47;;;18.30;45.10;;;;;;5114216;28;20027;-65
2022/05/03 10:34:44;;;;;;;5.43;3.90;;;18.30;45.60;;;;;;5113942;28;20047;-65
2022/05/03 10:37:14;;;;;;;7.85;4.03;;;18.40;44.10;;;;;;5114003;28;20028;-66
2022/05/03 10:39:54;;;;;;;6.43;4.20;;;18.30;44.70;;;;;;5096052;28;20479;-68
2022/05/03 10:42:23;;;;;;;6.00;4.22;;;18.40;44.30;;;;;;5114136;28;20065;-67
2022/05/03 10:45:09;;;;;;;6.65;4.13;;;18.50;44.60;;;;;;5113907;28;20027;-67
2022/05/03 10:47:49;;;;;;;6.68;4.03;;;18.60;44.80;;;;;;5113808;28;20032;-67
2022/05/03 10:50:17;;;;;;;6.10;4.38;;;18.60;44.40;;;;;;5095831;28;20047;-67
2022/05/03 10:52:55;;;;;;;5.45;3.85;;;18.70;44.50;;;;;;5095757;28;20054;-67
2022/05/03 10:55:23;;;;;;;7.07;4.00;;;18.70;44.50;;;;;;5113855;28;20020;-68
2022/05/03 10:58:14;;;;;;;5.75;4.22;;;18.80;44.20;;;;;;5113653;28;20020;-68
2022/05/03 11:01:05;;;;;;;6.88;4.40;;;18.90;44.10;;;;;;5095739;28;20020;-67
2022/05/03 11:03:54;;;;;;;6.13;4.07;;;19.00;44.20;;;;;;5113640;28;20020;-67
2022/05/03 11:06:23;;;;;;;11.90;6.32;;;19.20;44.80;;;;;;5100307;28;20040;-67
2022/05/03 11:11:44;;;;;;;5.65;4.07;;;19.30;43.10;;;;;;5113702;28;20111;-66
2022/05/03 11:14:16;;;;;;;6.40;4.18;;;19.20;42.50;;;;;;5113616;28;20031;-66
2022/05/03 11:17:11;;;;;;;5.78;4.00;;;19.10;42.70;;;;;;5113455;28;20076;-66
2022/05/03 11:19:48;;;;;;;7.93;4.25;;;19.30;42.90;;;;;;5113501;28;20020;-66
2022/05/03 11:22:19;;;;;;;6.50;4.15;;;19.40;42.90;;;;;;5113345;28;20025;-66
2022/05/03 11:24:51;;;;;;;6.40;4.50;;;19.50;42.60;;;;;;5113401;28;20023;-66
2022/05/03 11:27:18;;;;;;;9.82;4.55;;;19.50;42.60;;;;;;5113449;28;20028;-66
2022/05/03 11:29:54;;;;;;;5.63;4.10;;;19.50;43.60;;;;;;5095721;28;20543;-66
2022/05/03 11:32:40;;;;;;;4.60;3.40;;;19.50;42.20;;;;;;5113265;28;20043;-67
2022/05/03 11:35:12;;;;;;;6.03;3.70;;;19.70;41.60;;;;;;5113356;28;20039;-66
2022/05/03 11:37:46;;;;;;;6.05;3.92;;;19.70;41.90;;;;;;5113267;28;20032;-66
2022/05/03 11:40:12;;;;;;;6.93;3.65;;;19.70;41.50;;;;;;5113278;28;20024;-66
2022/05/03 11:42:43;;;;;;;8.70;4.82;;;19.70;41.30;;;;;;5113202;28;20032;-67
2022/05/03 11:45:09;;;;;;;7.75;4.93;;;19.60;40.60;;;;;;5113184;28;20088;-67
2022/05/03 11:47:38;;;;;;;8.23;4.80;;;19.40;40.20;;;;;;5116305;28;20024;-67
2022/05/03 11:50:04;;;;;;;8.23;4.88;;;19.40;41.70;;;;;;5117262;28;20027;-67
2022/05/03 11:58:00;;;;;;;6.28;4.82;;;19.80;42.70;;;;;;5117236;28;20071;-67
2022/05/03 12:00:26;;;;;;;6.70;4.70;;;19.90;42.70;;;;;;5117024;28;20020;-67
2022/05/03 12:02:51;;;;;;;8.40;4.63;;;19.90;41.80;;;;;;5117039;28;20020;-65
2022/05/03 12:05:20;;;;;;;7.75;4.80;;;19.80;41.40;;;;;;5116934;28;20039;-66
2022/05/03 12:07:54;;;;;;;7.85;4.45;;;19.80;41.70;;;;;;5116641;28;20073;-66
2022/05/03 12:10:28;;;;;;;7.78;5.53;;;19.80;42.20;;;;;;5116887;28;20024;-66
2022/05/03 12:13:09;;;;;;;6.82;4.72;;;19.70;40.80;;;;;;5116794;28;20024;-66
2022/05/03 12:15:46;;;;;;;8.80;5.95;;;19.60;42.30;;;;;;5116925;28;20088;-66
2022/05/03 12:18:21;;;;;;;10.02;6.15;;;19.70;42.60;;;;;;5098806;28;20020;-65
2022/05/03 12:20:59;;;;;;;8.80;5.93;;;19.70;42.60;;;;;;5116735;28;20084;-66
2022/05/03 12:23:33;;;;;;;8.48;5.75;;;19.70;42.40;;;;;;5098646;28;20020;-66
2022/05/03 12:26:12;;;;;;;12.50;6.07;;;19.70;42.80;;;;;;5116721;28;20032;-65
2022/05/03 12:28:40;;;;;;;8.90;5.85;;;19.70;43.00;;;;;;5116496;28;20032;-65
2022/05/03 12:31:08;;;;;;;12.45;6.55;;;19.60;43.10;;;;;;5116676;28;20024;-70
2022/05/03 12:33:43;;;;;;;11.70;6.57;;;19.60;43.50;;;;;;5116196;28;20048;-75
2022/05/03 12:36:10;;;;;;;11.82;6.75;;;19.60;43.90;;;;;;5116458;28;20055;-77
2022/05/03 12:38:49;;;;;;;10.82;6.97;;;19.60;44.90;;;;;;5116455;28;20032;-76
2022/05/03 12:41:26;;;;;;;10.95;6.22;;;19.60;43.40;;;;;;5116307;28;20032;-75
2022/05/03 12:44:03;;;;;;;12.38;6.75;;;19.60;43.50;;;;;;5116238;28;20032;-75
2022/05/03 12:46:29;;;;;;;10.50;6.53;;;19.60;43.70;;;;;;5116126;28;20035;-74
2022/05/03 12:48:55;;;;;;;10.15;7.20;;;19.60;43.80;;;;;;5116180;28;20046;-74
2022/05/03 12:51:21;;;;;;;11.25;6.75;;;19.60;43.60;;;;;;5116030;28;20068;-69
2022/05/03 12:53:48;;;;;;;9.25;6.00;;;19.70;43.80;;;;;;5115997;28;20020;-70
2022/05/03 12:59:06;;;;;;;9.68;5.88;;;19.80;43.40;;;;;;5115459;28;20055;-69
2022/05/03 13:01:33;;;;;;;8.43;5.93;;;19.90;42.80;;;;;;5116013;28;20450;-70
2022/05/03 13:03:58;;;;;;;10.18;6.80;;;19.90;42.10;;;;;;5115973;28;20020;-69
2022/05/03 13:06:24;;;;;;;9.90;6.50;;;20.00;42.70;;;;;;5115754;28;20091;-70
2022/05/03 13:08:50;;;;;;;9.68;6.70;;;20.00;43.00;;;;;;5115666;28;20024;-70
2022/05/03 13:11:17;;;;;;;14.00;6.80;;;20.00;42.80;;;;;;5115453;28;20020;-70
2022/05/03 13:13:42;;;;;;;10.02;6.25;;;20.10;42.90;;;;;;5115696;28;20024;-70
2022/05/03 13:16:08;;;;;;;11.38;7.43;;;20.10;42.90;;;;;;5115637;28;20024;-70
2022/05/03 13:18:34;;;;;;;11.27;7.63;;;20.10;42.70;;;;;;5115539;28;20039;-70
2022/05/03 13:21:01;;;;;;;12.73;8.10;;;19.90;43.10;;;;;;5115487;28;20145;-70
2022/05/03 13:23:26;;;;;;;11.65;8.00;;;19.90;43.50;;;;;;5115500;28;20020;-69
2022/05/03 13:25:53;;;;;;;13.65;8.48;;;19.90;43.80;;;;;;5115465;28;20063;-69
2022/05/03 13:28:19;;;;;;;13.88;7.88;;;19.90;43.60;;;;;;5115238;28;20028;-70
2022/05/03 13:30:44;;;;;;;11.55;7.65;;;19.90;43.40;;;;;;5115351;28;20027;-69
2022/05/03 13:33:10;;;;;;;15.50;7.65;;;19.90;43.70;;;;;;5115065;28;20056;-70
2022/05/03 13:41:06;;;;;;;11.05;7.80;;;19.80;43.60;;;;;;5115268;28;20047;-70
2022/05/03 13:43:32;;;;;;;23.73;7.57;;;19.70;44.20;;;;;;5115054;28;20027;-70
2022/05/03 13:45:58;;;;;;;11.77;7.50;;;19.70;44.10;;;;;;5115034;28;20036;-70
2022/05/03 13:48:24;;;;;;;15.43;7.25;;;19.60;44.20;;;;;;5114902;28;20020;-70